Time;durP1;ratioP1;P1;durP2;ratioP2;P2;SDS_P1;SDS_P2;PMS_P1;PMS_P2;Temp;Humidity;BMP_temperature;BMP_pressure;BME280_temperature;BME280_humidity;BME280_pressure;Samples;Min_cycle;Max_cycle;Signal;HPM_P1;HPM_P2
2022/09/29 00:00:25;;;;;;;22.90;12.45;;;;;;;;;;2594589;53;21121;-75
2022/09/29 00:02:52;;;;;;;19.02;11.98;;;;;;;;;;2594701;52;21037;-76
2022/09/29 00:05:20;;;;;;;21.83;12.13;;;;;;;;;;2594827;52;21505;-76
2022/09/29 00:07:47;;;;;;;21.02;12.52;;;;;;;;;;2347467;57;21081;-74
2022/09/29 00:10:14;;;;;;;18.92;12.52;;;;;;;;;;2347655;57;21552;-74
2022/09/29 00:12:41;;;;;;;24.35;13.30;;;;;;;;;;2346195;57;21041;-74
2022/09/29 00:15:09;;;;;;;18.70;11.65;;;;;;;;;;2347149;57;21029;-77
2022/09/29 00:17:36;;;;;;;21.05;13.68;;;;;;;;;;2594496;53;21026;-76
2022/09/29 00:20:03;;;;;;;21.85;12.93;;;;;;;;;;2594977;53;21037;-77
2022/09/29 00:22:30;;;;;;;21.17;12.85;;;;;;;;;;2604234;52;21094;-77
2022/09/29 00:24:57;;;;;;;27.80;13.07;;;;;;;;;;2628869;52;21048;-80
2022/09/29 00:27:24;;;;;;;18.70;12.37;;;;;;;;;;2627552;52;21050;-77
2022/09/29 00:29:51;;;;;;;19.80;12.02;;;;;;;;;;2374965;56;21111;-76
2022/09/29 00:32:18;;;;;;;19.27;12.15;;;;;;;;;;2373403;56;21031;-74
2022/09/29 00:34:45;;;;;;;20.70;12.70;;;;;;;;;;2373841;56;21040;-74
2022/09/29 00:37:13;;;;;;;19.15;12.07;;;;;;;;;;2373396;56;21058;-76
2022/09/29 00:39:40;;;;;;;22.45;13.32;;;;;;;;;;2626891;52;21035;-74
2022/09/29 00:42:09;;;;;;;18.87;10.55;;;;;;;;;;2373397;56;21047;-76
2022/09/29 00:44:54;;;;;;;18.37;11.40;;;;;;;;;;2373610;56;21038;-74
2022/09/29 00:47:21;;;;;;;19.12;12.65;;;;;;;;;;2374094;56;21110;-78
2022/09/29 00:49:52;;;;;;;18.15;11.82;;;;;;;;;;2373230;56;21059;-75
2022/09/29 00:52:20;;;;;;;20.02;12.93;;;;;;;;;;2373445;56;21168;-74
2022/09/29 00:54:50;;;;;;;18.95;12.18;;;;;;;;;;2373968;56;21121;-74
2022/09/29 00:57:20;;;;;;;20.45;13.27;;;;;;;;;;2374374;56;21090;-77
2022/09/29 00:59:49;;;;;;;21.45;12.40;;;;;;;;;;2627150;52;21664;-77
2022/09/29 01:02:17;;;;;;;22.37;12.82;;;;;;;;;;2373582;56;21063;-77
2022/09/29 01:04:45;;;;;;;19.17;12.20;;;;;;;;;;2626707;52;21091;-76
2022/09/29 01:07:13;;;;;;;18.62;12.27;;;;;;;;;;2373424;56;21557;-76
2022/09/29 01:09:40;;;;;;;18.35;11.48;;;;;;;;;;2626898;52;21027;-77
2022/09/29 01:12:07;;;;;;;18.65;11.63;;;;;;;;;;2373574;56;21098;-77
2022/09/29 01:14:35;;;;;;;19.75;12.27;;;;;;;;;;2627386;52;21106;-73
2022/09/29 01:17:02;;;;;;;15.98;10.77;;;;;;;;;;2627198;52;21114;-76
2022/09/29 01:19:35;;;;;;;18.55;10.90;;;;;;;;;;2374442;56;21119;-77
2022/09/29 01:22:02;;;;;;;;;;;;;;;;;;2377205;56;21549;-77
2022/09/29 01:24:54;;;;;;;20.75;11.77;;;;;;;;;;2373812;56;20371;-77
2022/09/29 01:27:33;;;;;;;21.10;12.10;;;;;;;;;;2374553;56;21059;-74
2022/09/29 01:30:06;;;;;;;19.40;11.52;;;;;;;;;;2626787;52;21039;-75
2022/09/29 01:32:46;;;;;;;24.50;14.00;;;;;;;;;;2373679;56;21588;-76
2022/09/29 01:35:16;;;;;;;20.60;12.63;;;;;;;;;;2373895;56;21589;-77
2022/09/29 01:37:51;;;;;;;19.45;11.85;;;;;;;;;;2373959;56;21059;-77
2022/09/29 01:40:25;;;;;;;16.73;11.25;;;;;;;;;;2627073;52;21528;-76
2022/09/29 01:42:54;;;;;;;25.88;13.18;;;;;;;;;;2372679;56;21039;-76
2022/09/29 01:45:24;;;;;;;21.77;12.00;;;;;;;;;;2373781;56;21145;-76
2022/09/29 01:47:53;;;;;;;18.10;11.45;;;;;;;;;;2373732;56;21106;-77
2022/09/29 01:50:24;;;;;;;27.45;13.52;;;;;;;;;;2625781;52;21511;-77
2022/09/29 01:52:52;;;;;;;21.42;12.88;;;;;;;;;;2374107;56;21031;-77
2022/09/29 01:55:21;;;;;;;21.10;13.10;;;;;;;;;;2626636;52;21090;-76
2022/09/29 01:57:50;;;;;;;20.12;10.90;;;;;;;;;;2374193;56;21592;-77
2022/09/29 02:00:18;;;;;;;23.33;13.98;;;;;;;;;;2373672;56;21047;-74
2022/09/29 02:02:47;;;;;;;17.40;11.95;;;;;;;;;;2373915;56;21126;-74
2022/09/29 02:05:16;;;;;;;24.20;13.25;;;;;;;;;;2374517;56;21047;-76
2022/09/29 02:07:44;;;;;;;25.95;12.88;;;;;;;;;;2373191;56;21545;-77
2022/09/29 02:10:13;;;;;;;18.85;10.80;;;;;;;;;;2626818;52;21521;-76
2022/09/29 02:12:41;;;;;;;23.20;12.48;;;;;;;;;;2372516;56;21046;-77
2022/09/29 02:15:12;;;;;;;22.00;13.10;;;;;;;;;;2373680;56;21067;-76
2022/09/29 02:17:40;;;;;;;21.10;12.27;;;;;;;;;;2374386;56;21106;-76
2022/09/29 02:20:10;;;;;;;16.77;10.40;;;;;;;;;;2627248;52;21059;-76
2022/09/29 02:22:37;;;;;;;22.13;12.73;;;;;;;;;;2626164;52;21054;-75
2022/09/29 02:25:07;;;;;;;19.50;11.25;;;;;;;;;;2372741;56;21553;-77
2022/09/29 02:27:35;;;;;;;16.77;10.52;;;;;;;;;;2626919;52;21583;-76
2022/09/29 02:30:02;;;;;;;17.90;11.02;;;;;;;;;;2626943;52;21620;-77
2022/09/29 02:32:29;;;;;;;16.80;9.73;;;;;;;;;;2373080;56;21109;-77
2022/09/29 02:34:57;;;;;;;19.62;11.73;;;;;;;;;;2374140;56;21031;-76
2022/09/29 02:37:30;;;;;;;16.85;10.52;;;;;;;;;;2373608;56;21137;-76
2022/09/29 02:40:03;;;;;;;20.65;11.48;;;;;;;;;;2373728;56;21050;-76
2022/09/29 02:42:33;;;;;;;24.17;11.75;;;;;;;;;;2372910;56;21058;-74
2022/09/29 02:45:07;;;;;;;19.33;11.20;;;;;;;;;;2627069;52;21623;-76
2022/09/29 02:47:42;;;;;;;18.98;11.15;;;;;;;;;;2373789;56;21368;-74
2022/09/29 02:50:20;;;;;;;17.37;11.00;;;;;;;;;;2625092;52;21176;-77
2022/09/29 02:52:53;;;;;;;20.55;12.20;;;;;;;;;;2374033;56;21058;-77
2022/09/29 02:55:24;;;;;;;18.48;10.85;;;;;;;;;;2373914;56;21043;-75
2022/09/29 02:57:53;;;;;;;16.08;10.98;;;;;;;;;;2371172;56;21625;-74
2022/09/29 03:00:20;;;;;;;18.45;11.30;;;;;;;;;;2625922;52;21533;-76
2022/09/29 03:02:47;;;;;;;21.33;11.82;;;;;;;;;;2373285;56;21851;-75
2022/09/29 03:05:16;;;;;;;22.15;11.70;;;;;;;;;;2626863;52;21038;-76
2022/09/29 03:07:43;;;;;;;16.92;10.60;;;;;;;;;;2373770;56;21682;-77
2022/09/29 03:10:11;;;;;;;17.05;10.75;;;;;;;;;;2626075;52;21091;-76
2022/09/29 03:12:38;;;;;;;19.48;10.95;;;;;;;;;;2626648;52;21103;-77
2022/09/29 03:15:07;;;;;;;16.65;11.15;;;;;;;;;;2373697;56;21031;-76
2022/09/29 03:17:34;;;;;;;19.48;12.10;;;;;;;;;;2373815;56;21656;-77
2022/09/29 03:20:02;;;;;;;22.00;12.13;;;;;;;;;;2373817;56;21157;-77
2022/09/29 03:22:29;;;;;;;20.90;11.55;;;;;;;;;;2372929;56;21046;-77
2022/09/29 03:24:56;;;;;;;15.70;10.25;;;;;;;;;;2373669;56;21031;-77
2022/09/29 03:27:23;;;;;;;18.45;11.00;;;;;;;;;;2374128;56;21106;-76
2022/09/29 03:29:50;;;;;;;19.33;11.52;;;;;;;;;;2373775;56;21027;-77
2022/09/29 03:32:17;;;;;;;17.48;11.48;;;;;;;;;;2371567;56;21775;-74
2022/09/29 03:34:44;;;;;;;17.67;10.55;;;;;;;;;;2373751;56;21524;-76
2022/09/29 03:37:11;;;;;;;17.33;11.63;;;;;;;;;;2374029;56;21035;-75
2022/09/29 03:39:38;;;;;;;17.70;10.85;;;;;;;;;;2626744;52;21050;-77
2022/09/29 03:42:05;;;;;;;14.45;9.38;;;;;;;;;;2624491;52;21082;-76
2022/09/29 03:44:32;;;;;;;16.83;10.27;;;;;;;;;;2373630;56;21612;-77
2022/09/29 03:47:00;;;;;;;20.33;11.27;;;;;;;;;;2374253;56;21034;-77
2022/09/29 03:49:26;;;;;;;17.62;10.85;;;;;;;;;;2372921;56;21057;-77
2022/09/29 03:51:54;;;;;;;15.38;9.52;;;;;;;;;;2625918;52;21038;-77
2022/09/29 03:54:23;;;;;;;18.75;12.00;;;;;;;;;;2374282;56;21062;-77
2022/09/29 03:56:50;;;;;;;16.00;10.60;;;;;;;;;;2626479;52;21112;-77
2022/09/29 03:59:17;;;;;;;21.70;11.80;;;;;;;;;;2373757;56;21056;-75
2022/09/29 04:01:44;;;;;;;18.50;10.75;;;;;;;;;;2625739;52;21606;-77
2022/09/29 04:04:11;;;;;;;20.62;11.63;;;;;;;;;;2626663;52;21039;-74
2022/09/29 04:06:38;;;;;;;18.75;11.73;;;;;;;;;;2373345;56;21557;-77
2022/09/29 04:09:05;;;;;;;22.75;10.98;;;;;;;;;;2373783;56;21125;-75
2022/09/29 04:11:32;;;;;;;20.50;12.52;;;;;;;;;;2627516;52;21520;-78
2022/09/29 04:13:59;;;;;;;18.92;12.07;;;;;;;;;;2373937;56;21138;-78
2022/09/29 04:16:26;;;;;;;18.98;11.98;;;;;;;;;;2375148;56;21106;-77
2022/09/29 04:18:53;;;;;;;21.35;11.73;;;;;;;;;;2627700;52;21050;-77
2022/09/29 04:21:20;;;;;;;16.85;10.85;;;;;;;;;;2372289;56;21564;-76
2022/09/29 04:23:47;;;;;;;16.35;10.40;;;;;;;;;;2373559;56;21030;-77
2022/09/29 04:26:14;;;;;;;18.42;10.88;;;;;;;;;;2627204;52;21381;-73
2022/09/29 04:28:41;;;;;;;16.75;10.60;;;;;;;;;;2374562;56;21557;-76
2022/09/29 04:31:08;;;;;;;21.80;11.07;;;;;;;;;;2374189;56;21047;-77
2022/09/29 04:33:36;;;;;;;20.42;11.27;;;;;;;;;;2373899;56;21050;-77
2022/09/29 04:36:03;;;;;;;21.55;12.10;;;;;;;;;;2374146;56;21056;-77
2022/09/29 04:38:30;;;;;;;16.73;10.73;;;;;;;;;;2374036;56;21043;-77
2022/09/29 04:40:58;;;;;;;17.67;10.75;;;;;;;;;;2626669;52;21541;-76
2022/09/29 04:43:25;;;;;;;17.73;11.23;;;;;;;;;;2374480;56;21090;-74
2022/09/29 04:45:52;;;;;;;21.10;11.50;;;;;;;;;;2627538;52;21094;-76
2022/09/29 04:48:19;;;;;;;17.52;11.35;;;;;;;;;;2374511;56;21051;-76
2022/09/29 04:50:46;;;;;;;18.62;9.60;;;;;;;;;;2373747;56;21051;-75
2022/09/29 04:53:13;;;;;;;16.00;9.90;;;;;;;;;;2374317;56;21034;-77
2022/09/29 04:55:40;;;;;;;19.60;10.82;;;;;;;;;;2373475;56;21718;-77
2022/09/29 04:58:07;;;;;;;18.20;11.12;;;;;;;;;;2373656;56;21031;-78
2022/09/29 05:00:34;;;;;;;18.55;11.80;;;;;;;;;;2627221;52;21114;-73
2022/09/29 05:03:02;;;;;;;23.80;11.70;;;;;;;;;;2627722;52;21035;-77
2022/09/29 05:05:30;;;;;;;16.62;10.93;;;;;;;;;;2373971;56;21098;-76
2022/09/29 05:07:58;;;;;;;18.60;9.80;;;;;;;;;;2373884;56;21042;-77
2022/09/29 05:10:25;;;;;;;13.30;9.93;;;;;;;;;;2626233;52;21050;-76
2022/09/29 05:12:52;;;;;;;16.00;9.25;;;;;;;;;;2372709;56;21036;-77
2022/09/29 05:15:20;;;;;;;14.95;10.02;;;;;;;;;;2626717;52;21043;-76
2022/09/29 05:17:47;;;;;;;18.83;10.73;;;;;;;;;;2373987;56;21039;-76
2022/09/29 05:20:15;;;;;;;18.23;10.40;;;;;;;;;;2373988;56;21039;-76
2022/09/29 05:22:42;;;;;;;17.62;10.10;;;;;;;;;;2373453;56;21154;-75
2022/09/29 05:25:09;;;;;;;17.25;10.73;;;;;;;;;;2374381;56;21541;-77
2022/09/29 05:27:37;;;;;;;26.05;14.40;;;;;;;;;;2374116;56;21050;-76
2022/09/29 05:30:05;;;;;;;17.67;11.60;;;;;;;;;;2627770;52;21034;-74
2022/09/29 05:32:32;;;;;;;17.23;11.18;;;;;;;;;;2373710;56;21130;-74
2022/09/29 05:34:59;;;;;;;17.87;11.25;;;;;;;;;;2374001;56;21103;-76
2022/09/29 05:37:26;;;;;;;16.90;10.23;;;;;;;;;;2626452;52;21138;-74
2022/09/29 05:39:53;;;;;;;17.92;10.68;;;;;;;;;;2374579;56;21102;-76
2022/09/29 05:42:20;;;;;;;17.40;11.63;;;;;;;;;;2626885;52;21038;-77
2022/09/29 05:44:47;;;;;;;19.00;12.15;;;;;;;;;;2627151;52;21038;-76
2022/09/29 05:47:14;;;;;;;19.70;12.32;;;;;;;;;;2374297;56;21035;-77
2022/09/29 05:49:41;;;;;;;21.80;11.95;;;;;;;;;;2374211;56;21110;-76
2022/09/29 05:52:08;;;;;;;22.13;12.07;;;;;;;;;;2373554;56;21078;-76
2022/09/29 05:54:35;;;;;;;22.17;12.88;;;;;;;;;;2626374;52;21055;-74
2022/09/29 05:57:03;;;;;;;21.23;13.23;;;;;;;;;;2374080;56;21110;-76
2022/09/29 05:59:30;;;;;;;21.35;12.40;;;;;;;;;;2374112;56;21050;-73
2022/09/29 06:01:57;;;;;;;19.12;11.27;;;;;;;;;;2373206;56;21094;-77
2022/09/29 06:04:24;;;;;;;16.85;10.52;;;;;;;;;;2627419;52;21426;-77
2022/09/29 06:06:51;;;;;;;14.90;10.23;;;;;;;;;;2373957;56;21046;-76
2022/09/29 06:09:19;;;;;;;17.10;11.07;;;;;;;;;;2627582;52;21114;-75
2022/09/29 06:11:46;;;;;;;20.73;13.65;;;;;;;;;;2373824;56;21062;-76
2022/09/29 06:14:13;;;;;;;23.12;12.60;;;;;;;;;;2373187;56;21687;-73
2022/09/29 06:16:40;;;;;;;21.15;12.50;;;;;;;;;;2373607;56;21039;-77
2022/09/29 06:19:07;;;;;;;17.65;11.00;;;;;;;;;;2626984;52;21031;-74
2022/09/29 06:21:36;;;;;;;19.42;12.05;;;;;;;;;;2373312;56;21052;-76
2022/09/29 06:24:06;;;;;;;22.15;12.10;;;;;;;;;;2373496;56;21047;-73
2022/09/29 06:26:33;;;;;;;22.45;12.77;;;;;;;;;;2373826;56;21027;-77
2022/09/29 06:29:00;;;;;;;20.50;12.88;;;;;;;;;;2373319;56;21118;-77
2022/09/29 06:31:28;;;;;;;19.33;11.85;;;;;;;;;;2373907;56;21077;-77
2022/09/29 06:33:57;;;;;;;22.90;12.52;;;;;;;;;;2626854;52;21019;-77
2022/09/29 06:39:12;;;;;;;24.08;12.80;;;;;;;;;;2374252;56;21046;-76
2022/09/29 06:41:40;;;;;;;21.33;12.15;;;;;;;;;;2372616;56;21102;-75
2022/09/29 06:44:07;;;;;;;20.88;12.00;;;;;;;;;;2627631;52;21050;-76
2022/09/29 06:46:34;;;;;;;20.33;12.63;;;;;;;;;;2374243;56;21055;-73
2022/09/29 06:49:01;;;;;;;20.00;12.35;;;;;;;;;;2374251;56;21054;-76
2022/09/29 06:51:29;;;;;;;24.35;14.10;;;;;;;;;;2373099;56;21553;-75
2022/09/29 06:53:56;;;;;;;25.00;13.43;;;;;;;;;;2373923;56;21039;-76
2022/09/29 06:56:23;;;;;;;25.90;14.98;;;;;;;;;;2374013;56;21082;-74
2022/09/29 06:58:50;;;;;;;18.33;11.77;;;;;;;;;;2626348;52;21043;-76
2022/09/29 07:01:17;;;;;;;20.55;11.90;;;;;;;;;;2626207;52;21035;-76
2022/09/29 07:03:44;;;;;;;19.65;12.32;;;;;;;;;;2374512;56;21034;-75
2022/09/29 07:06:12;;;;;;;24.45;13.80;;;;;;;;;;2373445;56;21414;-73
2022/09/29 07:08:39;;;;;;;25.20;14.57;;;;;;;;;;2373485;56;21085;-75
2022/09/29 07:11:06;;;;;;;25.83;15.18;;;;;;;;;;2373447;56;21039;-74
2022/09/29 07:13:34;;;;;;;23.25;14.05;;;;;;;;;;2373586;56;21094;-77
2022/09/29 07:16:06;;;;;;;19.90;12.40;;;;;;;;;;2627437;52;21495;-76
2022/09/29 07:18:34;;;;;;;25.20;13.60;;;;;;;;;;2627577;52;21086;-75
2022/09/29 07:21:01;;;;;;;24.37;15.15;;;;;;;;;;2626963;52;21054;-74
2022/09/29 07:23:28;;;;;;;26.42;14.20;;;;;;;;;;2627206;52;21114;-77
2022/09/29 07:25:55;;;;;;;24.73;14.38;;;;;;;;;;2373512;56;21054;-77
2022/09/29 07:28:22;;;;;;;27.17;15.60;;;;;;;;;;2371751;56;21432;-74
2022/09/29 07:30:58;;;;;;;29.00;15.90;;;;;;;;;;2371711;56;21055;-77
2022/09/29 07:33:25;;;;;;;25.15;15.32;;;;;;;;;;2373191;56;21090;-74
2022/09/29 07:35:52;;;;;;;22.30;14.30;;;;;;;;;;2626832;52;21075;-77
2022/09/29 07:38:19;;;;;;;24.25;15.57;;;;;;;;;;2373653;56;21139;-77
2022/09/29 07:40:47;;;;;;;24.10;13.60;;;;;;;;;;2373186;56;21059;-78
2022/09/29 07:43:14;;;;;;;22.42;13.23;;;;;;;;;;2374468;56;21354;-77
2022/09/29 07:48:20;;;;;;;20.08;13.57;;;;;;;;;;2351239;57;22165;-76
2022/09/29 07:50:47;;;;;;;26.65;15.93;;;;;;;;;;2318975;58;21060;-76
2022/09/29 07:53:14;;;;;;;24.25;13.93;;;;;;;;;;2318097;58;21044;-76
2022/09/29 07:58:13;;;;;;;21.30;13.88;;;;;;;;;;2351591;57;25141;-73
2022/09/29 08:00:40;;;;;;;23.02;14.82;;;;;;;;;;2344974;57;21125;-75
2022/09/29 08:03:07;;;;;;;22.50;13.57;;;;;;;;;;2347043;57;21600;-73
2022/09/29 08:05:34;;;;;;;19.00;12.93;;;;;;;;;;2344846;57;21050;-76
2022/09/29 08:08:02;;;;;;;25.12;14.90;;;;;;;;;;2590307;52;21125;-74
2022/09/29 08:10:30;;;;;;;28.02;17.02;;;;;;;;;;2591308;53;21026;-73
2022/09/29 08:12:57;;;;;;;21.33;13.77;;;;;;;;;;2344423;57;21128;-76
2022/09/29 08:15:24;;;;;;;27.27;15.13;;;;;;;;;;2343242;57;21914;-74
2022/09/29 08:17:53;;;;;;;22.37;14.07;;;;;;;;;;2590434;53;21533;-76
2022/09/29 08:20:20;;;;;;;23.58;15.73;;;;;;;;;;2345509;57;21034;-76
2022/09/29 08:22:47;;;;;;;23.27;14.98;;;;;;;;;;2345355;57;21105;-74
2022/09/29 08:25:15;;;;;;;25.42;14.27;;;;;;;;;;2344319;57;21042;-76
2022/09/29 08:27:42;;;;;;;23.45;13.85;;;;;;;;;;2345316;57;21113;-75
2022/09/29 08:30:10;;;;;;;21.77;13.38;;;;;;;;;;2591390;53;21301;-76
2022/09/29 08:32:38;;;;;;;26.70;14.95;;;;;;;;;;2343959;57;21131;-76
2022/09/29 08:35:06;;;;;;;19.80;13.05;;;;;;;;;;2344402;57;21494;-74
2022/09/29 08:37:33;;;;;;;23.12;15.25;;;;;;;;;;2592169;53;21018;-76
2022/09/29 08:40:00;;;;;;;23.48;13.45;;;;;;;;;;2591885;53;21093;-76
2022/09/29 08:42:34;;;;;;;22.00;13.38;;;;;;;;;;2590622;53;21121;-77
2022/09/29 08:45:03;;;;;;;21.95;14.60;;;;;;;;;;2343996;57;21061;-76
2022/09/29 08:47:31;;;;;;;22.83;13.90;;;;;;;;;;2344013;57;21041;-76
2022/09/29 08:50:01;;;;;;;22.77;13.60;;;;;;;;;;2344340;57;21631;-77
2022/09/29 08:52:30;;;;;;;20.83;13.93;;;;;;;;;;2592309;53;21105;-76
2022/09/29 08:55:02;;;;;;;22.58;13.93;;;;;;;;;;2592408;53;21938;-76
2022/09/29 08:57:29;;;;;;;23.73;15.45;;;;;;;;;;2345933;57;21050;-76
2022/09/29 08:59:58;;;;;;;22.05;15.02;;;;;;;;;;2345801;57;21051;-76
2022/09/29 09:02:37;;;;;;;26.12;15.65;;;;;;;;;;2591862;53;21117;-73
2022/09/29 09:05:12;;;;;;;23.10;14.43;;;;;;;;;;2345376;57;21038;-77
2022/09/29 09:07:44;;;;;;;22.55;14.27;;;;;;;;;;2345791;57;21124;-73
2022/09/29 09:10:17;;;;;;;22.90;14.30;;;;;;;;;;2591767;53;21034;-76
2022/09/29 09:13:05;;;;;;;25.15;14.65;;;;;;;;;;2344758;57;21623;-76
2022/09/29 09:15:39;;;;;;;21.80;13.15;;;;;;;;;;2590980;53;21093;-74
2022/09/29 09:18:15;;;;;;;24.12;14.25;;;;;;;;;;2591828;53;21078;-73
2022/09/29 09:20:44;;;;;;;23.38;14.65;;;;;;;;;;2344908;57;21124;-72
2022/09/29 09:23:15;;;;;;;21.05;13.98;;;;;;;;;;2591808;53;21062;-76
2022/09/29 09:25:47;;;;;;;20.70;13.90;;;;;;;;;;2591652;53;21073;-76
2022/09/29 09:28:16;;;;;;;18.55;12.37;;;;;;;;;;2345262;57;21545;-77
2022/09/29 09:30:47;;;;;;;25.33;14.68;;;;;;;;;;2591037;53;21510;-76
2022/09/29 09:33:22;;;;;;;22.50;13.75;;;;;;;;;;2344345;57;21572;-76
2022/09/29 09:35:52;;;;;;;16.98;11.93;;;;;;;;;;2344667;57;21541;-74
2022/09/29 09:38:22;;;;;;;21.95;14.02;;;;;;;;;;2345219;57;21117;-74
2022/09/29 09:40:52;;;;;;;18.75;12.48;;;;;;;;;;2344140;57;21548;-73
2022/09/29 09:43:22;;;;;;;17.50;12.10;;;;;;;;;;2591895;52;21102;-74
2022/09/29 09:45:51;;;;;;;17.00;11.10;;;;;;;;;;2344789;57;21117;-76
2022/09/29 09:48:21;;;;;;;22.52;12.37;;;;;;;;;;2344733;57;21050;-76
2022/09/29 09:50:49;;;;;;;16.65;11.38;;;;;;;;;;2344771;57;21113;-76
2022/09/29 09:53:20;;;;;;;20.42;13.68;;;;;;;;;;2345012;57;21110;-75
2022/09/29 09:55:51;;;;;;;19.45;11.63;;;;;;;;;;2344885;57;21058;-76
2022/09/29 09:58:33;;;;;;;16.55;10.43;;;;;;;;;;2344414;57;21081;-76
2022/09/29 10:01:01;;;;;;;15.70;10.40;;;;;;;;;;2344490;57;21097;-76
2022/09/29 10:03:29;;;;;;;14.65;10.57;;;;;;;;;;2591317;53;21591;-74
2022/09/29 10:05:57;;;;;;;13.75;9.98;;;;;;;;;;2344564;57;21521;-77
2022/09/29 10:08:25;;;;;;;16.10;9.23;;;;;;;;;;2591715;53;21022;-76
2022/09/29 10:10:52;;;;;;;14.68;8.77;;;;;;;;;;2590356;53;21085;-76
2022/09/29 10:13:19;;;;;;;12.25;8.20;;;;;;;;;;2344416;57;21101;-75
2022/09/29 10:15:49;;;;;;;14.98;8.85;;;;;;;;;;2590727;53;21046;-76
2022/09/29 10:18:17;;;;;;;17.00;9.55;;;;;;;;;;2590948;53;21556;-75
2022/09/29 10:20:44;;;;;;;11.48;8.10;;;;;;;;;;2343869;57;21140;-76
2022/09/29 10:23:19;;;;;;;11.05;7.43;;;;;;;;;;2344781;57;21039;-76
2022/09/29 10:25:51;;;;;;;11.95;8.02;;;;;;;;;;2591079;53;21548;-74
2022/09/29 10:28:18;;;;;;;12.37;7.60;;;;;;;;;;2345173;57;21057;-77
2022/09/29 10:30:45;;;;;;;14.52;7.57;;;;;;;;;;2343957;57;21042;-76
2022/09/29 10:33:15;;;;;;;11.95;7.93;;;;;;;;;;2344449;57;21115;-76
2022/09/29 10:35:43;;;;;;;10.43;7.35;;;;;;;;;;2344942;57;21034;-76
2022/09/29 10:38:16;;;;;;;12.10;7.05;;;;;;;;;;2343871;57;21018;-76
2022/09/29 10:40:53;;;;;;;10.20;6.65;;;;;;;;;;2342817;57;21636;-76
2022/09/29 10:43:23;;;;;;;9.80;6.60;;;;;;;;;;2589170;53;21121;-76
2022/09/29 10:45:52;;;;;;;10.20;7.40;;;;;;;;;;2343840;57;21082;-75
2022/09/29 10:48:21;;;;;;;12.45;7.68;;;;;;;;;;2343729;57;21042;-73
2022/09/29 10:50:50;;;;;;;13.00;7.18;;;;;;;;;;2343438;57;21084;-76
2022/09/29 10:53:20;;;;;;;9.00;6.47;;;;;;;;;;2343834;57;21558;-72
2022/09/29 10:55:51;;;;;;;11.40;6.40;;;;;;;;;;2588503;53;21553;-76
2022/09/29 10:58:21;;;;;;;11.45;7.35;;;;;;;;;;2343768;57;21568;-73
2022/09/29 11:00:48;;;;;;;13.30;7.85;;;;;;;;;;2343156;57;21050;-76
2022/09/29 11:03:19;;;;;;;10.75;7.57;;;;;;;;;;2589867;53;21034;-75
2022/09/29 11:05:51;;;;;;;10.60;6.82;;;;;;;;;;2343750;57;21128;-76
2022/09/29 11:08:24;;;;;;;12.65;6.87;;;;;;;;;;2343057;57;21997;-75
2022/09/29 11:11:02;;;;;;;9.82;6.40;;;;;;;;;;2590105;53;21065;-76
2022/09/29 11:13:36;;;;;;;10.88;6.87;;;;;;;;;;2344450;57;21042;-74
2022/09/29 11:16:05;;;;;;;12.23;7.35;;;;;;;;;;2343427;57;21566;-76
2022/09/29 11:18:34;;;;;;;9.65;7.05;;;;;;;;;;2591613;53;21031;-78
2022/09/29 11:21:04;;;;;;;10.55;7.40;;;;;;;;;;2341662;57;21788;-77
2022/09/29 11:23:34;;;;;;;11.80;8.65;;;;;;;;;;2341599;57;21231;-79
2022/09/29 11:26:09;;;;;;;16.52;7.28;;;;;;;;;;2343742;57;21041;-77
2022/09/29 11:28:51;;;;;;;10.05;7.28;;;;;;;;;;2343463;57;21141;-76
2022/09/29 11:31:29;;;;;;;10.80;6.95;;;;;;;;;;2589261;53;21113;-77
2022/09/29 11:34:03;;;;;;;9.43;6.72;;;;;;;;;;2343932;57;21038;-75
2022/09/29 11:36:35;;;;;;;9.48;6.53;;;;;;;;;;2343473;57;21615;-77
2022/09/29 11:39:11;;;;;;;10.23;6.95;;;;;;;;;;2589446;53;21046;-77
2022/09/29 11:41:47;;;;;;;10.45;6.05;;;;;;;;;;2589950;53;21102;-77
2022/09/29 11:44:25;;;;;;;9.05;6.87;;;;;;;;;;2343390;57;21105;-73
2022/09/29 11:46:58;;;;;;;10.15;6.10;;;;;;;;;;2343055;57;21062;-77
2022/09/29 11:49:55;;;;;;;10.10;6.43;;;;;;;;;;2590295;53;21042;-76
2022/09/29 11:52:31;;;;;;;7.47;5.82;;;;;;;;;;2323558;57;21030;-73
2022/09/29 11:55:15;;;;;;;9.93;6.12;;;;;;;;;;2343275;57;21533;-76
2022/09/29 11:57:48;;;;;;;8.35;5.90;;;;;;;;;;2343944;57;21526;-76
2022/09/29 12:00:16;;;;;;;8.68;6.80;;;;;;;;;;2344074;57;21141;-73
2022/09/29 12:02:59;;;;;;;9.93;6.70;;;;;;;;;;2343077;57;21118;-77
2022/09/29 12:05:28;;;;;;;7.65;5.53;;;;;;;;;;2343855;57;21117;-76
2022/09/29 12:08:01;;;;;;;9.48;6.85;;;;;;;;;;2344385;57;21435;-75
2022/09/29 12:10:37;;;;;;;11.07;6.53;;;;;;;;;;2345116;57;21544;-78
2022/09/29 12:13:08;;;;;;;9.57;6.18;;;;;;;;;;2590583;53;21086;-77
2022/09/29 12:15:41;;;;;;;11.48;6.87;;;;;;;;;;2343994;57;21073;-76
2022/09/29 12:18:13;;;;;;;12.63;7.47;;;;;;;;;;2590601;53;21169;-73
2022/09/29 12:20:42;;;;;;;10.77;6.75;;;;;;;;;;2590023;53;21524;-76
2022/09/29 12:23:11;;;;;;;11.32;7.55;;;;;;;;;;2480065;52;21058;-76
2022/09/29 12:25:40;;;;;;;13.07;8.68;;;;;;;;;;2589107;53;21542;-77
2022/09/29 12:28:12;;;;;;;11.52;8.27;;;;;;;;;;2346480;57;21052;-76
2022/09/29 12:30:43;;;;;;;9.45;7.40;;;;;;;;;;2346805;57;21049;-76
2022/09/29 12:33:16;;;;;;;10.88;7.55;;;;;;;;;;2347290;57;21049;-73
2022/09/29 12:35:47;;;;;;;8.82;6.57;;;;;;;;;;2347456;57;21025;-76
2022/09/29 12:38:17;;;;;;;8.88;6.80;;;;;;;;;;2346619;57;21881;-77
2022/09/29 12:40:48;;;;;;;10.25;7.10;;;;;;;;;;2347217;57;21128;-76
2022/09/29 12:43:17;;;;;;;8.65;6.85;;;;;;;;;;2346620;57;21186;-76
2022/09/29 12:45:48;;;;;;;9.68;7.07;;;;;;;;;;2594475;53;21045;-73
2022/09/29 12:48:23;;;;;;;7.72;5.97;;;;;;;;;;2346492;57;21073;-76
2022/09/29 12:50:51;;;;;;;8.77;6.07;;;;;;;;;;2347411;57;21049;-73
2022/09/29 12:53:20;;;;;;;8.80;6.97;;;;;;;;;;2594365;53;21528;-73
2022/09/29 12:55:49;;;;;;;8.35;6.85;;;;;;;;;;2347038;57;21104;-76
2022/09/29 12:58:21;;;;;;;10.07;7.00;;;;;;;;;;2347507;57;21069;-76
2022/09/29 13:00:51;;;;;;;11.95;6.75;;;;;;;;;;2347272;57;21112;-76
2022/09/29 13:03:32;;;;;;;9.45;6.97;;;;;;;;;;2593429;53;21048;-77
2022/09/29 13:06:14;;;;;;;7.18;6.03;;;;;;;;;;2345866;57;21038;-76
2022/09/29 13:11:36;;;;;;;10.35;7.00;;;;;;;;;;2351982;57;22062;-76
2022/09/29 13:14:30;;;;;;;13.32;7.35;;;;;;;;;;2356113;56;21042;-76
2022/09/29 13:19:50;;;;;;;8.70;6.72;;;;;;;;;;2327130;57;22621;-72
2022/09/29 13:22:37;;;;;;;9.68;6.60;;;;;;;;;;2345906;57;21097;-76
2022/09/29 13:25:07;;;;;;;9.43;6.15;;;;;;;;;;2344885;57;21029;-76
2022/09/29 13:27:36;;;;;;;8.43;5.97;;;;;;;;;;2343487;57;21563;-76
2022/09/29 13:30:06;;;;;;;7.30;5.47;;;;;;;;;;2344323;57;21125;-76
2022/09/29 13:32:33;;;;;;;8.27;5.87;;;;;;;;;;2344168;57;21686;-75
2022/09/29 13:35:01;;;;;;;6.53;5.18;;;;;;;;;;2590050;53;21532;-76
2022/09/29 13:37:30;;;;;;;7.80;5.75;;;;;;;;;;2344492;57;21045;-76
2022/09/29 13:39:59;;;;;;;8.40;5.80;;;;;;;;;;2592076;52;21061;-73
2022/09/29 13:42:28;;;;;;;7.75;5.72;;;;;;;;;;2344305;57;21045;-76
2022/09/29 13:45:15;;;;;;;5.62;4.82;;;;;;;;;;2344199;57;21041;-76
2022/09/29 13:47:45;;;;;;;7.65;5.03;;;;;;;;;;2345381;57;21659;-74
2022/09/29 13:50:41;;;;;;;6.22;4.75;;;;;;;;;;2344835;57;21049;-76
2022/09/29 13:53:27;;;;;;;8.43;5.03;;;;;;;;;;2566766;53;21100;-76
2022/09/29 13:55:54;;;;;;;7.78;5.68;;;;;;;;;;2344937;57;21113;-73
2022/09/29 13:58:23;;;;;;;9.70;6.18;;;;;;;;;;2592022;53;21034;-74
2022/09/29 14:00:50;;;;;;;9.18;5.75;;;;;;;;;;2344729;57;21560;-76
2022/09/29 14:03:28;;;;;;;6.87;5.45;;;;;;;;;;2343281;57;21125;-76
2022/09/29 14:05:57;;;;;;;6.80;4.80;;;;;;;;;;2592315;53;21540;-76
2022/09/29 14:08:29;;;;;;;8.82;5.37;;;;;;;;;;2345308;57;21033;-76
2022/09/29 14:11:01;;;;;;;7.00;5.37;;;;;;;;;;2344704;57;21544;-76
2022/09/29 14:13:31;;;;;;;6.70;5.10;;;;;;;;;;2346121;57;21025;-77
2022/09/29 14:18:44;;;;;;;10.52;5.70;;;;;;;;;;2355314;57;22149;-73
2022/09/29 14:21:12;;;;;;;9.80;6.65;;;;;;;;;;2346314;57;21112;-77
2022/09/29 14:23:50;;;;;;;8.98;6.57;;;;;;;;;;2599959;52;21502;-77
2022/09/29 14:26:37;;;;;;;10.57;7.03;;;;;;;;;;2373467;56;21109;-77
2022/09/29 14:29:04;;;;;;;10.45;7.75;;;;;;;;;;2374907;56;21406;-76
2022/09/29 14:31:31;;;;;;;12.77;8.75;;;;;;;;;;2374245;56;21023;-77
2022/09/29 14:34:01;;;;;;;10.52;8.70;;;;;;;;;;2375345;56;21058;-74
2022/09/29 14:36:31;;;;;;;10.30;7.87;;;;;;;;;;2626133;52;21542;-74
2022/09/29 14:38:59;;;;;;;11.30;7.93;;;;;;;;;;2371242;56;21122;-75
2022/09/29 14:41:30;;;;;;;9.90;8.48;;;;;;;;;;2372857;56;21051;-77
2022/09/29 14:43:59;;;;;;;11.95;9.10;;;;;;;;;;2374200;56;21117;-74
2022/09/29 14:52:43;;;;;;;10.63;8.13;;;;;;;;;;2372995;56;21560;-77
2022/09/29 14:55:14;;;;;;;11.65;9.07;;;;;;;;;;2373520;56;21039;-74
2022/09/29 14:57:52;;;;;;;11.55;9.65;;;;;;;;;;2373659;56;21165;-77
2022/09/29 15:00:20;;;;;;;11.63;8.88;;;;;;;;;;2373821;56;21566;-79